sensor_id;sensor_type;location;lat;lon;timestamp;temperature;humidity
34877;DHT22;21086;44.780;17.194;2022-12-10T00:01:22;14.60;99.90
34877;DHT22;21086;44.780;17.194;2022-12-10T00:03:49;14.50;99.90
34877;DHT22;21086;44.780;17.194;2022-12-10T00:06:20;14.40;99.90
34877;DHT22;21086;44.780;17.194;2022-12-10T00:08:48;14.20;99.90
34877;DHT22;21086;44.780;17.194;2022-12-10T00:11:17;14.20;99.90
34877;DHT22;21086;44.780;17.194;2022-12-10T00:13:45;14.10;99.90
34877;DHT22;21086;44.780;17.194;2022-12-10T00:16:15;14.10;99.90
34877;DHT22;21086;44.780;17.194;2022-12-10T00:18:42;14.10;99.90
34877;DHT22;21086;44.780;17.194;2022-12-10T00:21:11;14.00;99.90
34877;DHT22;21086;44.780;17.194;2022-12-10T00:23:39;14.00;99.90
34877;DHT22;21086;44.780;17.194;2022-12-10T00:26:19;13.90;99.90
34877;DHT22;21086;44.780;17.194;2022-12-10T00:28:48;13.90;99.90
34877;DHT22;21086;44.780;17.194;2022-12-10T00:31:19;13.80;99.90
34877;DHT22;21086;44.780;17.194;2022-12-10T00:33:48;13.80;99.90
34877;DHT22;21086;44.780;17.194;2022-12-10T00:36:18;13.80;99.90
34877;DHT22;21086;44.780;17.194;2022-12-10T00:38:46;13.80;99.90
34877;DHT22;21086;44.780;17.194;2022-12-10T00:41:14;13.80;99.90
34877;DHT22;21086;44.780;17.194;2022-12-10T00:43:42;13.90;99.90
34877;DHT22;21086;44.780;17.194;2022-12-10T00:46:11;14.20;99.90
34877;DHT22;21086;44.780;17.194;2022-12-10T00:48:38;14.60;99.90
34877;DHT22;21086;44.780;17.194;2022-12-10T00:51:08;14.90;99.90
34877;DHT22;21086;44.780;17.194;2022-12-10T00:53:40;15.20;99.90
34877;DHT22;21086;44.780;17.194;2022-12-10T00:56:09;15.40;99.90
34877;DHT22;21086;44.780;17.194;2022-12-10T00:58:38;15.70;99.90
34877;DHT22;21086;44.780;17.194;2022-12-10T01:01:28;16.10;99.90
34877;DHT22;21086;44.780;17.194;2022-12-10T01:03:58;16.50;99.90
34877;DHT22;21086;44.780;17.194;2022-12-10T01:06:32;16.60;99.90
34877;DHT22;21086;44.780;17.194;2022-12-10T01:09:02;16.80;99.90
34877;DHT22;21086;44.780;17.194;2022-12-10T01:11:35;16.90;99.90
34877;DHT22;21086;44.780;17.194;2022-12-10T01:14:05;17.00;99.90
34877;DHT22;21086;44.780;17.194;2022-12-10T01:16:33;17.10;99.90
34877;DHT22;21086;44.780;17.194;2022-12-10T01:19:00;17.20;99.90
34877;DHT22;21086;44.780;17.194;2022-12-10T01:21:28;17.20;99.90
34877;DHT22;21086;44.780;17.194;2022-12-10T01:23:55;17.30;99.90
34877;DHT22;21086;44.780;17.194;2022-12-10T01:26:25;17.40;99.90
34877;DHT22;21086;44.780;17.194;2022-12-10T01:28:53;17.50;99.90
34877;DHT22;21086;44.780;17.194;2022-12-10T01:31:28;17.50;99.90
34877;DHT22;21086;44.780;17.194;2022-12-10T01:33:55;17.40;99.90
34877;DHT22;21086;44.780;17.194;2022-12-10T01:36:31;17.50;99.90
34877;DHT22;21086;44.780;17.194;2022-12-10T01:38:58;17.40;99.90
34877;DHT22;21086;44.780;17.194;2022-12-10T01:41:28;17.40;99.90
34877;DHT22;21086;44.780;17.194;2022-12-10T01:46:56;17.50;99.90
34877;DHT22;21086;44.780;17.194;2022-12-10T01:49:26;17.50;99.90
34877;DHT22;21086;44.780;17.194;2022-12-10T01:51:55;17.50;99.90
34877;DHT22;21086;44.780;17.194;2022-12-10T01:54:28;17.50;99.90
34877;DHT22;21086;44.780;17.194;2022-12-10T01:57:05;17.50;99.90
34877;DHT22;21086;44.780;17.194;2022-12-10T01:59:33;17.50;99.90
34877;DHT22;21086;44.780;17.194;2022-12-10T02:02:03;17.50;99.90
34877;DHT22;21086;44.780;17.194;2022-12-10T02:04:49;17.60;99.90
34877;DHT22;21086;44.780;17.194;2022-12-10T02:11:16;17.50;99.90
34877;DHT22;21086;44.780;17.194;2022-12-10T02:16:57;17.50;99.90
34877;DHT22;21086;44.780;17.194;2022-12-10T02:22:12;17.40;99.90
34877;DHT22;21086;44.780;17.194;2022-12-10T02:24:40;17.50;99.90
34877;DHT22;21086;44.780;17.194;2022-12-10T02:27:17;17.50;99.90
34877;DHT22;21086;44.780;17.194;2022-12-10T02:29:47;17.40;99.90
34877;DHT22;21086;44.780;17.194;2022-12-10T02:32:24;17.40;99.90
34877;DHT22;21086;44.780;17.194;2022-12-10T02:34:57;17.30;99.90
34877;DHT22;21086;44.780;17.194;2022-12-10T02:37:33;17.30;99.90
34877;DHT22;21086;44.780;17.194;2022-12-10T02:40:11;17.30;99.90
34877;DHT22;21086;44.780;17.194;2022-12-10T02:42:42;17.40;99.90
34877;DHT22;21086;44.780;17.194;2022-12-10T02:45:10;17.30;99.90
34877;DHT22;21086;44.780;17.194;2022-12-10T02:47:39;17.20;99.90
34877;DHT22;21086;44.780;17.194;2022-12-10T02:50:07;17.20;99.90
34877;DHT22;21086;44.780;17.194;2022-12-10T02:52:36;17.20;99.90
34877;DHT22;21086;44.780;17.194;2022-12-10T02:55:03;17.20;99.90
34877;DHT22;21086;44.780;17.194;2022-12-10T03:03:02;15.90;99.90
34877;DHT22;21086;44.780;17.194;2022-12-10T03:11:15;14.70;99.90
34877;DHT22;21086;44.780;17.194;2022-12-10T03:13:45;14.60;99.90
34877;DHT22;21086;44.780;17.194;2022-12-10T03:16:15;14.40;99.90
34877;DHT22;21086;44.780;17.194;2022-12-10T03:18:44;14.20;99.90
34877;DHT22;21086;44.780;17.194;2022-12-10T03:21:13;14.20;99.90
34877;DHT22;21086;44.780;17.194;2022-12-10T03:23:43;14.20;99.90
34877;DHT22;21086;44.780;17.194;2022-12-10T03:26:12;14.20;99.90
34877;DHT22;21086;44.780;17.194;2022-12-10T03:28:49;14.10;99.90
34877;DHT22;21086;44.780;17.194;2022-12-10T03:31:18;14.10;99.90
34877;DHT22;21086;44.780;17.194;2022-12-10T03:33:47;14.10;99.90
34877;DHT22;21086;44.780;17.194;2022-12-10T03:36:16;14.00;99.90
34877;DHT22;21086;44.780;17.194;2022-12-10T03:38:44;14.10;99.90
34877;DHT22;21086;44.780;17.194;2022-12-10T03:41:11;14.00;99.90
34877;DHT22;21086;44.780;17.194;2022-12-10T03:43:59;14.00;99.90
34877;DHT22;21086;44.780;17.194;2022-12-10T03:46:31;14.00;99.90
34877;DHT22;21086;44.780;17.194;2022-12-10T03:48:59;14.00;99.90
34877;DHT22;21086;44.780;17.194;2022-12-10T03:51:26;14.00;99.90
34877;DHT22;21086;44.780;17.194;2022-12-10T03:53:53;14.10;99.90
34877;DHT22;21086;44.780;17.194;2022-12-10T03:56:21;14.00;99.90
34877;DHT22;21086;44.780;17.194;2022-12-10T03:58:48;14.00;99.90
34877;DHT22;21086;44.780;17.194;2022-12-10T04:01:15;14.10;99.90
34877;DHT22;21086;44.780;17.194;2022-12-10T04:03:43;14.00;99.90
34877;DHT22;21086;44.780;17.194;2022-12-10T04:06:16;14.00;99.90
34877;DHT22;21086;44.780;17.194;2022-12-10T04:08:44;14.00;99.90
34877;DHT22;21086;44.780;17.194;2022-12-10T04:11:13;14.00;99.90
34877;DHT22;21086;44.780;17.194;2022-12-10T04:13:41;14.10;99.90
34877;DHT22;21086;44.780;17.194;2022-12-10T04:16:27;14.00;99.90
34877;DHT22;21086;44.780;17.194;2022-12-10T04:19:01;13.90;99.90
34877;DHT22;21086;44.780;17.194;2022-12-10T04:21:30;13.90;99.90
34877;DHT22;21086;44.780;17.194;2022-12-10T04:24:20;13.80;99.90
34877;DHT22;21086;44.780;17.194;2022-12-10T04:27:10;13.80;99.90
34877;DHT22;21086;44.780;17.194;2022-12-10T04:29:37;13.80;99.90
34877;DHT22;21086;44.780;17.194;2022-12-10T04:32:05;13.80;99.90
34877;DHT22;21086;44.780;17.194;2022-12-10T04:34:32;13.90;99.90
34877;DHT22;21086;44.780;17.194;2022-12-10T04:36:59;13.90;99.90
34877;DHT22;21086;44.780;17.194;2022-12-10T04:39:26;13.90;99.90
34877;DHT22;21086;44.780;17.194;2022-12-10T04:41:53;13.80;99.90
34877;DHT22;21086;44.780;17.194;2022-12-10T04:44:21;13.60;99.90
34877;DHT22;21086;44.780;17.194;2022-12-10T04:46:48;13.60;99.90
34877;DHT22;21086;44.780;17.194;2022-12-10T04:49:17;13.60;99.90
34877;DHT22;21086;44.780;17.194;2022-12-10T04:51:45;13.50;99.90
34877;DHT22;21086;44.780;17.194;2022-12-10T04:54:12;13.50;99.90
34877;DHT22;21086;44.780;17.194;2022-12-10T04:56:40;13.50;99.90
34877;DHT22;21086;44.780;17.194;2022-12-10T04:59:09;13.50;99.90
34877;DHT22;21086;44.780;17.194;2022-12-10T05:01:35;13.50;99.90
34877;DHT22;21086;44.780;17.194;2022-12-10T05:04:08;13.50;99.90
34877;DHT22;21086;44.780;17.194;2022-12-10T05:06:36;13.50;99.90
34877;DHT22;21086;44.780;17.194;2022-12-10T05:09:04;13.50;99.90
34877;DHT22;21086;44.780;17.194;2022-12-10T05:11:32;13.50;99.90
34877;DHT22;21086;44.780;17.194;2022-12-10T05:14:00;13.50;99.90
34877;DHT22;21086;44.780;17.194;2022-12-10T05:16:30;13.50;99.90
34877;DHT22;21086;44.780;17.194;2022-12-10T05:18:57;13.60;99.90
34877;DHT22;21086;44.780;17.194;2022-12-10T05:21:26;13.60;99.90
34877;DHT22;21086;44.780;17.194;2022-12-10T05:24:13;13.60;99.90
34877;DHT22;21086;44.780;17.194;2022-12-10T05:26:40;13.60;99.90
34877;DHT22;21086;44.780;17.194;2022-12-10T05:29:07;13.50;99.90
34877;DHT22;21086;44.780;17.194;2022-12-10T05:31:35;13.40;99.90
34877;DHT22;21086;44.780;17.194;2022-12-10T05:34:02;13.40;99.90
34877;DHT22;21086;44.780;17.194;2022-12-10T05:36:31;13.40;99.90
34877;DHT22;21086;44.780;17.194;2022-12-10T05:38:58;13.40;99.90
34877;DHT22;21086;44.780;17.194;2022-12-10T05:41:28;13.40;99.90
34877;DHT22;21086;44.780;17.194;2022-12-10T05:43:57;13.50;99.90
34877;DHT22;21086;44.780;17.194;2022-12-10T05:46:27;13.50;99.90
34877;DHT22;21086;44.780;17.194;2022-12-10T05:48:54;13.50;99.90
34877;DHT22;21086;44.780;17.194;2022-12-10T05:51:25;13.50;99.90
34877;DHT22;21086;44.780;17.194;2022-12-10T05:53:53;13.50;99.90
34877;DHT22;21086;44.780;17.194;2022-12-10T05:56:23;13.40;99.90
34877;DHT22;21086;44.780;17.194;2022-12-10T05:58:53;13.40;99.90
34877;DHT22;21086;44.780;17.194;2022-12-10T06:01:26;13.40;99.90
34877;DHT22;21086;44.780;17.194;2022-12-10T06:03:54;13.40;99.90
34877;DHT22;21086;44.780;17.194;2022-12-10T06:06:23;13.40;99.90
34877;DHT22;21086;44.780;17.194;2022-12-10T06:08:51;13.50;99.90
34877;DHT22;21086;44.780;17.194;2022-12-10T06:11:18;13.50;99.90
34877;DHT22;21086;44.780;17.194;2022-12-10T06:13:45;13.50;99.90
34877;DHT22;21086;44.780;17.194;2022-12-10T06:16:18;13.50;99.90
34877;DHT22;21086;44.780;17.194;2022-12-10T06:18:45;13.60;99.90
34877;DHT22;21086;44.780;17.194;2022-12-10T06:21:15;13.50;99.90
34877;DHT22;21086;44.780;17.194;2022-12-10T06:23:42;13.50;99.90
34877;DHT22;21086;44.780;17.194;2022-12-10T06:26:22;13.50;99.90
34877;DHT22;21086;44.780;17.194;2022-12-10T06:28:50;13.50;99.90
34877;DHT22;21086;44.780;17.194;2022-12-10T06:31:17;13.50;99.90
34877;DHT22;21086;44.780;17.194;2022-12-10T06:33:45;13.60;99.90
34877;DHT22;21086;44.780;17.194;2022-12-10T06:36:13;13.60;99.90
34877;DHT22;21086;44.780;17.194;2022-12-10T06:38:41;13.60;99.90
34877;DHT22;21086;44.780;17.194;2022-12-10T06:41:10;13.60;99.90
34877;DHT22;21086;44.780;17.194;2022-12-10T06:43:38;13.60;99.90
34877;DHT22;21086;44.780;17.194;2022-12-10T06:46:06;13.60;99.90
34877;DHT22;21086;44.780;17.194;2022-12-10T06:48:34;13.70;99.90
34877;DHT22;21086;44.780;17.194;2022-12-10T06:51:03;13.60;99.90
34877;DHT22;21086;44.780;17.194;2022-12-10T06:53:32;13.60;99.90
34877;DHT22;21086;44.780;17.194;2022-12-10T06:55:59;13.60;99.90
34877;DHT22;21086;44.780;17.194;2022-12-10T06:58:28;13.50;99.90
34877;DHT22;21086;44.780;17.194;2022-12-10T07:01:05;13.50;99.90
34877;DHT22;21086;44.780;17.194;2022-12-10T07:03:32;13.50;99.90
34877;DHT22;21086;44.780;17.194;2022-12-10T07:06:01;13.60;99.90
34877;DHT22;21086;44.780;17.194;2022-12-10T07:08:28;13.70;99.90
34877;DHT22;21086;44.780;17.194;2022-12-10T07:10:56;13.70;99.90
34877;DHT22;21086;44.780;17.194;2022-12-10T07:13:26;13.70;99.90
34877;DHT22;21086;44.780;17.194;2022-12-10T07:16:11;13.70;99.90
34877;DHT22;21086;44.780;17.194;2022-12-10T07:18:38;13.70;99.90
34877;DHT22;21086;44.780;17.194;2022-12-10T07:21:16;13.60;99.90
34877;DHT22;21086;44.780;17.194;2022-12-10T07:23:59;13.60;99.90
34877;DHT22;21086;44.780;17.194;2022-12-10T07:26:31;12.50;99.90
34877;DHT22;21086;44.780;17.194;2022-12-10T07:29:02;13.60;99.90
34877;DHT22;21086;44.780;17.194;2022-12-10T07:31:29;13.60;99.90
34877;DHT22;21086;44.780;17.194;2022-12-10T07:34:01;13.20;99.90
34877;DHT22;21086;44.780;17.194;2022-12-10T07:36:28;13.70;99.90
34877;DHT22;21086;44.780;17.194;2022-12-10T07:38:55;13.80;99.90
34877;DHT22;21086;44.780;17.194;2022-12-10T07:41:23;13.70;99.90
34877;DHT22;21086;44.780;17.194;2022-12-10T07:43:50;13.70;99.90
34877;DHT22;21086;44.780;17.194;2022-12-10T07:48:46;13.70;99.90
34877;DHT22;21086;44.780;17.194;2022-12-10T07:51:14;13.70;99.90
34877;DHT22;21086;44.780;17.194;2022-12-10T07:53:42;13.60;99.90
34877;DHT22;21086;44.780;17.194;2022-12-10T07:56:10;13.60;99.90
34877;DHT22;21086;44.780;17.194;2022-12-10T07:58:41;13.70;99.90
34877;DHT22;21086;44.780;17.194;2022-12-10T08:01:17;13.80;99.90
34877;DHT22;21086;44.780;17.194;2022-12-10T08:03:45;13.70;99.90
34877;DHT22;21086;44.780;17.194;2022-12-10T08:06:15;13.70;99.90
34877;DHT22;21086;44.780;17.194;2022-12-10T08:08:43;13.80;99.90
34877;DHT22;21086;44.780;17.194;2022-12-10T08:11:12;13.80;99.90
34877;DHT22;21086;44.780;17.194;2022-12-10T08:13:39;13.90;99.90
34877;DHT22;21086;44.780;17.194;2022-12-10T08:16:20;13.90;99.90
34877;DHT22;21086;44.780;17.194;2022-12-10T08:18:49;14.00;99.90
34877;DHT22;21086;44.780;17.194;2022-12-10T08:21:19;14.00;99.90
34877;DHT22;21086;44.780;17.194;2022-12-10T08:23:46;14.10;99.90
34877;DHT22;21086;44.780;17.194;2022-12-10T08:26:19;14.30;99.90
34877;DHT22;21086;44.780;17.194;2022-12-10T08:28:47;14.30;99.90
34877;DHT22;21086;44.780;17.194;2022-12-10T08:31:18;14.30;99.90
34877;DHT22;21086;44.780;17.194;2022-12-10T08:33:45;14.20;99.90
34877;DHT22;21086;44.780;17.194;2022-12-10T08:36:14;14.30;99.90
34877;DHT22;21086;44.780;17.194;2022-12-10T08:38:42;14.30;99.90
34877;DHT22;21086;44.780;17.194;2022-12-10T08:41:12;14.40;99.90
34877;DHT22;21086;44.780;17.194;2022-12-10T08:43:40;14.40;99.90
34877;DHT22;21086;44.780;17.194;2022-12-10T08:46:08;14.40;99.90
34877;DHT22;21086;44.780;17.194;2022-12-10T08:48:36;14.40;99.90
34877;DHT22;21086;44.780;17.194;2022-12-10T08:51:05;14.40;99.90
34877;DHT22;21086;44.780;17.194;2022-12-10T08:53:33;14.40;99.90
34877;DHT22;21086;44.780;17.194;2022-12-10T08:56:00;14.30;99.90
34877;DHT22;21086;44.780;17.194;2022-12-10T08:58:27;14.30;99.90
34877;DHT22;21086;44.780;17.194;2022-12-10T09:00:54;14.40;99.90
34877;DHT22;21086;44.780;17.194;2022-12-10T09:03:22;14.30;99.90
34877;DHT22;21086;44.780;17.194;2022-12-10T09:05:50;14.30;99.90
34877;DHT22;21086;44.780;17.194;2022-12-10T09:08:17;14.20;99.90
34877;DHT22;21086;44.780;17.194;2022-12-10T09:10:45;14.30;99.90
34877;DHT22;21086;44.780;17.194;2022-12-10T09:13:12;14.20;99.90
34877;DHT22;21086;44.780;17.194;2022-12-10T09:15:38;14.20;99.90
34877;DHT22;21086;44.780;17.194;2022-12-10T09:18:05;14.20;99.90
34877;DHT22;21086;44.780;17.194;2022-12-10T09:20:32;14.20;99.90
34877;DHT22;21086;44.780;17.194;2022-12-10T09:22:59;14.30;99.90
34877;DHT22;21086;44.780;17.194;2022-12-10T09:25:26;14.20;99.90
34877;DHT22;21086;44.780;17.194;2022-12-10T09:27:53;14.30;99.90
34877;DHT22;21086;44.780;17.194;2022-12-10T09:30:20;14.30;99.90
34877;DHT22;21086;44.780;17.194;2022-12-10T09:32:47;14.30;99.90
34877;DHT22;21086;44.780;17.194;2022-12-10T09:35:15;14.30;99.90
34877;DHT22;21086;44.780;17.194;2022-12-10T09:37:42;14.30;99.90
34877;DHT22;21086;44.780;17.194;2022-12-10T09:40:15;14.20;99.90
34877;DHT22;21086;44.780;17.194;2022-12-10T09:42:56;14.20;99.90
34877;DHT22;21086;44.780;17.194;2022-12-10T09:45:54;14.30;99.90
34877;DHT22;21086;44.780;17.194;2022-12-10T09:51:24;14.40;99.90
34877;DHT22;21086;44.780;17.194;2022-12-10T09:53:53;14.40;99.90
34877;DHT22;21086;44.780;17.194;2022-12-10T09:56:29;14.40;99.90
34877;DHT22;21086;44.780;17.194;2022-12-10T09:59:19;14.30;99.90
34877;DHT22;21086;44.780;17.194;2022-12-10T10:02:27;14.30;99.90
34877;DHT22;21086;44.780;17.194;2022-12-10T10:04:47;14.40;99.90
34877;DHT22;21086;44.780;17.194;2022-12-10T10:07:27;14.30;99.90
34877;DHT22;21086;44.780;17.194;2022-12-10T10:09:59;14.30;99.90
34877;DHT22;21086;44.780;17.194;2022-12-10T10:12:28;14.30;99.90
34877;DHT22;21086;44.780;17.194;2022-12-10T10:14:55;14.30;99.90
34877;DHT22;21086;44.780;17.194;2022-12-10T10:17:36;14.40;99.90
34877;DHT22;21086;44.780;17.194;2022-12-10T10:20:05;14.40;99.90
34877;DHT22;21086;44.780;17.194;2022-12-10T10:22:32;14.50;99.90
34877;DHT22;21086;44.780;17.194;2022-12-10T10:25:02;14.50;99.90
34877;DHT22;21086;44.780;17.194;2022-12-10T10:27:32;14.40;99.90
34877;DHT22;21086;44.780;17.194;2022-12-10T10:30:03;14.40;99.90
34877;DHT22;21086;44.780;17.194;2022-12-10T10:35:05;14.30;99.90
34877;DHT22;21086;44.780;17.194;2022-12-10T10:40:05;14.30;99.90
34877;DHT22;21086;44.780;17.194;2022-12-10T10:42:37;14.30;99.90
34877;DHT22;21086;44.780;17.194;2022-12-10T10:48:08;14.00;99.90
34877;DHT22;21086;44.780;17.194;2022-12-10T10:55:49;13.80;99.90
34877;DHT22;21086;44.780;17.194;2022-12-10T10:58:21;13.80;99.90
34877;DHT22;21086;44.780;17.194;2022-12-10T11:01:01;13.80;99.90
34877;DHT22;21086;44.780;17.194;2022-12-10T11:03:30;13.60;99.90
34877;DHT22;21086;44.780;17.194;2022-12-10T11:05:58;13.70;99.90
34877;DHT22;21086;44.780;17.194;2022-12-10T11:08:30;13.70;99.90
34877;DHT22;21086;44.780;17.194;2022-12-10T11:11:22;12.40;99.90
34877;DHT22;21086;44.780;17.194;2022-12-10T11:13:51;13.70;99.90
34877;DHT22;21086;44.780;17.194;2022-12-10T11:16:23;13.70;99.90
34877;DHT22;21086;44.780;17.194;2022-12-10T11:18:55;13.80;99.90
34877;DHT22;21086;44.780;17.194;2022-12-10T11:21:24;13.80;99.90
34877;DHT22;21086;44.780;17.194;2022-12-10T11:23:53;13.70;99.90
34877;DHT22;21086;44.780;17.194;2022-12-10T11:34:38;13.70;99.90
34877;DHT22;21086;44.780;17.194;2022-12-10T11:41:06;13.70;99.90
34877;DHT22;21086;44.780;17.194;2022-12-10T11:43:28;13.80;99.90
34877;DHT22;21086;44.780;17.194;2022-12-10T11:49:26;13.70;99.90
34877;DHT22;21086;44.780;17.194;2022-12-10T11:52:03;13.50;99.90
34877;DHT22;21086;44.780;17.194;2022-12-10T11:57:52;12.40;99.90
34877;DHT22;21086;44.780;17.194;2022-12-10T12:00:26;11.60;99.90
34877;DHT22;21086;44.780;17.194;2022-12-10T12:03:03;10.60;99.90
34877;DHT22;21086;44.780;17.194;2022-12-10T12:09:11;9.90;99.90
34877;DHT22;21086;44.780;17.194;2022-12-10T12:14:40;10.00;99.90
34877;DHT22;21086;44.780;17.194;2022-12-10T12:17:30;10.10;99.90
34877;DHT22;21086;44.780;17.194;2022-12-10T12:20:05;10.10;99.90
34877;DHT22;21086;44.780;17.194;2022-12-10T12:22:45;10.10;99.90
34877;DHT22;21086;44.780;17.194;2022-12-10T12:25:30;10.10;99.90
34877;DHT22;21086;44.780;17.194;2022-12-10T12:30:44;10.30;99.90
34877;DHT22;21086;44.780;17.194;2022-12-10T12:33:28;10.50;99.90
34877;DHT22;21086;44.780;17.194;2022-12-10T12:36:06;10.50;99.90
34877;DHT22;21086;44.780;17.194;2022-12-10T12:38:55;10.40;99.90
34877;DHT22;21086;44.780;17.194;2022-12-10T12:49:41;10.20;99.90
34877;DHT22;21086;44.780;17.194;2022-12-10T12:54:40;9.90;99.90
34877;DHT22;21086;44.780;17.194;2022-12-10T12:57:27;9.80;99.90
34877;DHT22;21086;44.780;17.194;2022-12-10T13:00:11;9.70;99.90
34877;DHT22;21086;44.780;17.194;2022-12-10T13:02:44;9.60;99.90
34877;DHT22;21086;44.780;17.194;2022-12-10T13:05:21;9.60;99.90
34877;DHT22;21086;44.780;17.194;2022-12-10T13:08:15;9.40;99.90
34877;DHT22;21086;44.780;17.194;2022-12-10T13:40:55;9.20;99.90
34877;DHT22;21086;44.780;17.194;2022-12-10T13:46:23;9.40;99.90
34877;DHT22;21086;44.780;17.194;2022-12-10T13:48:53;9.60;99.90
34877;DHT22;21086;44.780;17.194;2022-12-10T14:00:15;9.70;99.90
34877;DHT22;21086;44.780;17.194;2022-12-10T14:06:24;9.70;99.90
34877;DHT22;21086;44.780;17.194;2022-12-10T14:09:17;9.70;99.90
34877;DHT22;21086;44.780;17.194;2022-12-10T14:14:45;9.50;99.90
34877;DHT22;21086;44.780;17.194;2022-12-10T14:17:17;9.50;99.90
34877;DHT22;21086;44.780;17.194;2022-12-10T14:19:47;9.40;99.90
34877;DHT22;21086;44.780;17.194;2022-12-10T14:22:39;9.50;99.90
34877;DHT22;21086;44.780;17.194;2022-12-10T14:25:16;9.30;99.90
34877;DHT22;21086;44.780;17.194;2022-12-10T14:27:47;9.30;99.90
34877;DHT22;21086;44.780;17.194;2022-12-10T14:30:25;9.30;99.90
34877;DHT22;21086;44.780;17.194;2022-12-10T14:32:58;9.30;99.90
34877;DHT22;21086;44.780;17.194;2022-12-10T14:35:28;9.40;99.90
34877;DHT22;21086;44.780;17.194;2022-12-10T14:37:57;9.60;99.90
34877;DHT22;21086;44.780;17.194;2022-12-10T14:40:42;9.60;99.90
34877;DHT22;21086;44.780;17.194;2022-12-10T14:43:20;9.70;99.90
34877;DHT22;21086;44.780;17.194;2022-12-10T14:45:57;9.80;99.90
34877;DHT22;21086;44.780;17.194;2022-12-10T14:48:25;10.00;99.90
34877;DHT22;21086;44.780;17.194;2022-12-10T14:50:52;10.00;99.90
34877;DHT22;21086;44.780;17.194;2022-12-10T14:53:25;10.00;99.90
34877;DHT22;21086;44.780;17.194;2022-12-10T14:56:05;10.00;99.90
34877;DHT22;21086;44.780;17.194;2022-12-10T14:59:08;9.90;99.90
34877;DHT22;21086;44.780;17.194;2022-12-10T15:01:40;9.80;99.90
34877;DHT22;21086;44.780;17.194;2022-12-10T15:04:13;9.70;99.90
34877;DHT22;21086;44.780;17.194;2022-12-10T15:06:42;9.60;99.90
34877;DHT22;21086;44.780;17.194;2022-12-10T15:09:20;9.60;99.90
34877;DHT22;21086;44.780;17.194;2022-12-10T15:11:55;9.60;99.90
34877;DHT22;21086;44.780;17.194;2022-12-10T15:14:23;9.70;99.90
34877;DHT22;21086;44.780;17.194;2022-12-10T15:16:51;9.50;99.90
34877;DHT22;21086;44.780;17.194;2022-12-10T15:22:19;9.30;99.90
34877;DHT22;21086;44.780;17.194;2022-12-10T15:24:47;9.00;99.90
34877;DHT22;21086;44.780;17.194;2022-12-10T15:27:23;8.80;99.90
34877;DHT22;21086;44.780;17.194;2022-12-10T15:29:50;8.60;99.90
34877;DHT22;21086;44.780;17.194;2022-12-10T15:32:25;8.60;99.90
34877;DHT22;21086;44.780;17.194;2022-12-10T15:34:59;8.70;99.90
34877;DHT22;21086;44.780;17.194;2022-12-10T15:37:39;8.60;99.90
34877;DHT22;21086;44.780;17.194;2022-12-10T15:40:28;8.40;99.90
34877;DHT22;21086;44.780;17.194;2022-12-10T15:43:30;8.30;99.90
34877;DHT22;21086;44.780;17.194;2022-12-10T15:45:58;8.40;99.90
34877;DHT22;21086;44.780;17.194;2022-12-10T15:48:29;8.50;99.90
34877;DHT22;21086;44.780;17.194;2022-12-10T15:50:56;8.60;99.90
34877;DHT22;21086;44.780;17.194;2022-12-10T15:53:28;8.60;99.90
34877;DHT22;21086;44.780;17.194;2022-12-10T15:56:02;8.50;99.90
34877;DHT22;21086;44.780;17.194;2022-12-10T15:58:29;8.50;99.90
34877;DHT22;21086;44.780;17.194;2022-12-10T16:00:56;8.40;99.90
34877;DHT22;21086;44.780;17.194;2022-12-10T16:03:25;8.20;99.90
34877;DHT22;21086;44.780;17.194;2022-12-10T16:05:54;8.20;99.90
34877;DHT22;21086;44.780;17.194;2022-12-10T16:08:27;8.20;99.90
34877;DHT22;21086;44.780;17.194;2022-12-10T16:11:00;8.00;99.90
34877;DHT22;21086;44.780;17.194;2022-12-10T16:13:35;7.80;99.90
34877;DHT22;21086;44.780;17.194;2022-12-10T16:16:05;8.00;99.90
34877;DHT22;21086;44.780;17.194;2022-12-10T16:18:33;7.90;99.90
34877;DHT22;21086;44.780;17.194;2022-12-10T16:21:06;7.80;99.90
34877;DHT22;21086;44.780;17.194;2022-12-10T16:23:34;7.80;99.90
34877;DHT22;21086;44.780;17.194;2022-12-10T16:26:01;7.80;99.90
34877;DHT22;21086;44.780;17.194;2022-12-10T16:28:29;7.70;99.90
34877;DHT22;21086;44.780;17.194;2022-12-10T16:30:58;7.70;99.90
34877;DHT22;21086;44.780;17.194;2022-12-10T16:33:27;7.80;99.90
34877;DHT22;21086;44.780;17.194;2022-12-10T16:35:55;7.80;99.90
34877;DHT22;21086;44.780;17.194;2022-12-10T16:38:24;7.80;99.90
34877;DHT22;21086;44.780;17.194;2022-12-10T16:40:52;7.90;99.90
34877;DHT22;21086;44.780;17.194;2022-12-10T16:43:21;7.90;99.90
34877;DHT22;21086;44.780;17.194;2022-12-10T16:45:50;8.10;99.90
34877;DHT22;21086;44.780;17.194;2022-12-10T16:48:18;8.20;99.90
34877;DHT22;21086;44.780;17.194;2022-12-10T16:50:47;8.20;99.90
34877;DHT22;21086;44.780;17.194;2022-12-10T16:53:21;8.30;99.90
34877;DHT22;21086;44.780;17.194;2022-12-10T16:55:50;7.20;99.90
34877;DHT22;21086;44.780;17.194;2022-12-10T16:58:17;8.30;99.90
34877;DHT22;21086;44.780;17.194;2022-12-10T17:00:47;8.30;99.90
34877;DHT22;21086;44.780;17.194;2022-12-10T17:03:20;8.50;99.90
34877;DHT22;21086;44.780;17.194;2022-12-10T17:05:56;8.30;99.90
34877;DHT22;21086;44.780;17.194;2022-12-10T17:08:25;8.20;99.90
34877;DHT22;21086;44.780;17.194;2022-12-10T17:10:53;8.00;99.90
34877;DHT22;21086;44.780;17.194;2022-12-10T17:13:40;7.80;99.90
34877;DHT22;21086;44.780;17.194;2022-12-10T17:16:17;7.70;99.90
34877;DHT22;21086;44.780;17.194;2022-12-10T17:18:45;7.50;99.90
34877;DHT22;21086;44.780;17.194;2022-12-10T17:21:12;7.40;99.90
34877;DHT22;21086;44.780;17.194;2022-12-10T17:23:39;8.00;99.90
34877;DHT22;21086;44.780;17.194;2022-12-10T17:26:06;7.30;99.90
34877;DHT22;21086;44.780;17.194;2022-12-10T17:28:34;7.40;99.90
34877;DHT22;21086;44.780;17.194;2022-12-10T17:31:00;7.60;99.90
34877;DHT22;21086;44.780;17.194;2022-12-10T17:33:27;7.50;99.90
34877;DHT22;21086;44.780;17.194;2022-12-10T17:35:54;7.40;99.90
34877;DHT22;21086;44.780;17.194;2022-12-10T17:38:23;7.30;99.90
34877;DHT22;21086;44.780;17.194;2022-12-10T17:40:51;7.10;99.90
34877;DHT22;21086;44.780;17.194;2022-12-10T17:43:19;7.10;99.90
34877;DHT22;21086;44.780;17.194;2022-12-10T17:45:46;7.00;99.90
34877;DHT22;21086;44.780;17.194;2022-12-10T17:48:16;7.00;99.90
34877;DHT22;21086;44.780;17.194;2022-12-10T17:50:45;7.00;99.90
34877;DHT22;21086;44.780;17.194;2022-12-10T17:53:14;6.90;99.90
34877;DHT22;21086;44.780;17.194;2022-12-10T17:55:48;6.90;99.90
34877;DHT22;21086;44.780;17.194;2022-12-10T17:58:15;6.90;99.90